Time;durP1;ratioP1;P1;durP2;ratioP2;P2;SDS_P1;SDS_P2;PMS_P1;PMS_P2;Temp;Humidity;BMP_temperature;BMP_pressure;BME280_temperature;BME280_humidity;BME280_pressure;Samples;Min_cycle;Max_cycle;Signal;HPM_P1;HPM_P2
2021/10/12 00:01:23;;;;;;;15.00;6.22;;;8.60;98.40;;;;;;5023482;28;20133;-60
2021/10/12 00:03:49;;;;;;;9.73;5.32;;;8.60;98.00;;;;;;5020952;28;20081;-60
2021/10/12 00:06:17;;;;;;;11.77;5.70;;;8.60;98.00;;;;;;5022856;28;20049;-60
2021/10/12 00:08:44;;;;;;;7.82;4.90;;;8.60;97.90;;;;;;5023175;28;20143;-59
2021/10/12 00:11:10;;;;;;;14.63;6.30;;;8.60;98.00;;;;;;5023421;28;20749;-60
2021/10/12 00:13:37;;;;;;;16.75;6.57;;;8.60;98.60;;;;;;5021858;28;20038;-60
2021/10/12 00:16:04;;;;;;;11.35;6.07;;;8.70;99.00;;;;;;5022635;28;20232;-60
2021/10/12 00:18:31;;;;;;;10.40;5.55;;;8.70;98.70;;;;;;5021861;28;20049;-60
2021/10/12 00:20:58;;;;;;;13.02;6.80;;;8.70;98.60;;;;;;5023144;28;20493;-60
2021/10/12 00:23:24;;;;;;;21.55;7.78;;;8.70;98.60;;;;;;5023608;28;20088;-60
2021/10/12 00:25:51;;;;;;;20.67;7.00;;;8.70;99.20;;;;;;5023184;28;20149;-60
2021/10/12 00:28:18;;;;;;;12.27;6.45;;;8.70;99.40;;;;;;5022295;28;20132;-59
2021/10/12 00:30:46;;;;;;;23.00;7.65;;;8.70;99.50;;;;;;5023574;28;20081;-59
2021/10/12 00:33:13;;;;;;;14.27;6.18;;;8.70;99.50;;;;;;5022269;28;20049;-59
2021/10/12 00:35:39;;;;;;;19.15;7.40;;;8.80;99.40;;;;;;5022231;28;20137;-60
2021/10/12 00:38:06;;;;;;;12.40;6.78;;;8.80;99.60;;;;;;5022316;28;20573;-59
2021/10/12 00:40:35;;;;;;;15.85;7.25;;;8.80;99.70;;;;;;5022630;28;20600;-59
2021/10/12 00:43:01;;;;;;;11.80;7.65;;;8.80;99.70;;;;;;5029481;28;20142;-60
2021/10/12 00:45:28;;;;;;;17.80;7.57;;;8.80;99.80;;;;;;5021837;28;20085;-59
2021/10/12 00:48:00;;;;;;;15.50;7.25;;;8.90;99.60;;;;;;5021826;28;20080;-60
2021/10/12 00:50:27;;;;;;;20.95;6.78;;;8.80;99.70;;;;;;5022733;28;20394;-60
2021/10/12 00:52:54;;;;;;;15.98;7.28;;;8.90;99.40;;;;;;5022649;28;20072;-59
2021/10/12 00:55:21;;;;;;;14.88;6.88;;;8.90;99.50;;;;;;5021507;28;20080;-59
2021/10/12 00:57:48;;;;;;;12.75;6.75;;;8.90;99.50;;;;;;5022474;28;20121;-60
2021/10/12 01:00:14;;;;;;;17.95;6.10;;;8.90;99.50;;;;;;5020400;28;20140;-59
2021/10/12 01:02:41;;;;;;;15.88;7.80;;;8.80;99.00;;;;;;5022147;28;20120;-59
2021/10/12 01:05:08;;;;;;;20.75;7.70;;;8.90;99.90;;;;;;5028381;28;20587;-60
2021/10/12 01:07:35;;;;;;;18.85;8.73;;;8.80;99.90;;;;;;5022390;28;20088;-59
2021/10/12 01:10:05;;;;;;;16.02;8.65;;;8.80;99.90;;;;;;5021427;28;20346;-59
2021/10/12 01:12:32;;;;;;;12.80;7.88;;;8.80;99.90;;;;;;5020240;28;20130;-59
2021/10/12 01:14:59;;;;;;;14.63;6.93;;;8.90;99.90;;;;;;5020543;28;20061;-59
2021/10/12 01:17:26;;;;;;;20.08;8.40;;;8.90;99.90;;;;;;5019849;28;20132;-59
2021/10/12 01:19:52;;;;;;;16.73;9.10;;;8.90;99.90;;;;;;5022238;28;20137;-59
2021/10/12 01:22:19;;;;;;;17.77;7.38;;;8.90;99.90;;;;;;5022258;28;20340;-59
2021/10/12 01:24:46;;;;;;;21.75;8.18;;;8.90;99.90;;;;;;5022665;28;20077;-60
2021/10/12 01:27:12;;;;;;;13.50;6.45;;;8.90;99.90;;;;;;5020587;28;20073;-59
2021/10/12 01:29:39;;;;;;;20.33;7.47;;;8.90;99.60;;;;;;5021711;28;20120;-60
2021/10/12 01:32:06;;;;;;;19.75;7.10;;;8.90;99.70;;;;;;5023342;28;20053;-59
2021/10/12 01:34:33;;;;;;;13.88;8.10;;;8.90;99.30;;;;;;5023912;28;20180;-60
2021/10/12 01:37:00;;;;;;;17.83;7.68;;;8.80;99.70;;;;;;5025329;28;20107;-60
2021/10/12 01:39:28;;;;;;;17.83;6.90;;;8.80;99.60;;;;;;5023881;28;20128;-60
2021/10/12 01:41:54;;;;;;;18.23;6.68;;;8.80;99.90;;;;;;5023982;28;20136;-60
2021/10/12 01:44:21;;;;;;;16.92;7.85;;;8.80;99.90;;;;;;5024518;28;20124;-60
2021/10/12 01:46:48;;;;;;;13.13;6.85;;;8.80;99.90;;;;;;5024075;28;20096;-60
2021/10/12 01:49:15;;;;;;;19.45;7.25;;;8.80;99.90;;;;;;5025061;28;20412;-59
2021/10/12 01:51:42;;;;;;;18.80;8.40;;;8.80;99.90;;;;;;5039988;28;20076;-60
2021/10/12 01:54:16;;;;;;;21.98;8.23;;;8.80;99.90;;;;;;5025422;28;20452;-60
2021/10/12 01:56:43;;;;;;;19.73;8.25;;;8.80;99.90;;;;;;5024225;28;20073;-60
2021/10/12 01:59:09;;;;;;;14.35;8.05;;;8.80;99.90;;;;;;5024260;28;20081;-60
2021/10/12 02:01:36;;;;;;;17.52;7.38;;;8.80;99.90;;;;;;5022200;28;20412;-60
2021/10/12 02:04:03;;;;;;;14.10;8.10;;;8.80;99.90;;;;;;5024581;28;20195;-60
2021/10/12 02:06:30;;;;;;;14.48;7.43;;;8.80;99.90;;;;;;5024491;28;20080;-60
2021/10/12 02:08:56;;;;;;;17.17;7.45;;;8.70;99.80;;;;;;5024715;28;20055;-60
2021/10/12 02:11:23;;;;;;;18.85;7.63;;;8.70;99.60;;;;;;5021838;28;20560;-60
2021/10/12 02:13:50;;;;;;;18.02;6.65;;;8.70;99.30;;;;;;5024364;28;20100;-60
2021/10/12 02:16:16;;;;;;;16.35;8.07;;;8.70;99.40;;;;;;5039602;28;20728;-60
2021/10/12 02:18:43;;;;;;;14.13;7.97;;;8.70;99.30;;;;;;5023336;28;20147;-60
2021/10/12 02:21:10;;;;;;;15.07;6.78;;;8.70;99.20;;;;;;5025067;28;20115;-59
2021/10/12 02:23:37;;;;;;;14.77;6.70;;;8.70;99.40;;;;;;5025652;28;20145;-60
2021/10/12 02:26:03;;;;;;;15.90;7.57;;;8.70;99.80;;;;;;5025661;28;20128;-60
2021/10/12 02:28:30;;;;;;;17.23;7.03;;;8.70;99.60;;;;;;5025738;28;20141;-60
2021/10/12 02:30:57;;;;;;;19.30;7.72;;;8.70;99.60;;;;;;5026551;28;20088;-60
2021/10/12 02:33:24;;;;;;;16.67;7.43;;;8.70;99.60;;;;;;5024976;28;20164;-60
2021/10/12 02:35:51;;;;;;;16.48;7.25;;;8.80;99.60;;;;;;5026141;28;20077;-60
2021/10/12 02:38:18;;;;;;;16.13;6.70;;;8.80;99.40;;;;;;5026180;28;20154;-60
2021/10/12 02:40:45;;;;;;;10.10;6.43;;;8.80;99.30;;;;;;5025511;28;20052;-60
2021/10/12 02:43:11;;;;;;;10.85;6.63;;;8.80;99.20;;;;;;5025353;28;20433;-60
2021/10/12 02:45:38;;;;;;;10.65;5.80;;;8.80;99.20;;;;;;5025211;28;20089;-60
2021/10/12 02:48:05;;;;;;;14.57;6.25;;;8.80;99.10;;;;;;5025372;28;20052;-60
2021/10/12 02:50:32;;;;;;;15.32;7.20;;;8.70;99.20;;;;;;5026384;28;20145;-60
2021/10/12 02:52:58;;;;;;;13.38;6.15;;;8.70;99.30;;;;;;5025683;28;20157;-61
2021/10/12 02:55:25;;;;;;;18.85;6.90;;;8.80;99.30;;;;;;5025963;28;20148;-60
2021/10/12 02:57:52;;;;;;;12.13;6.20;;;8.70;99.10;;;;;;5025815;28;20128;-60
2021/10/12 03:00:19;;;;;;;14.00;6.85;;;8.70;98.90;;;;;;5025765;28;20124;-60
2021/10/12 03:02:46;;;;;;;22.23;7.63;;;8.70;99.00;;;;;;5025135;28;20170;-60
2021/10/12 03:05:12;;;;;;;12.98;6.10;;;8.70;99.10;;;;;;5026362;28;20056;-60
2021/10/12 03:07:40;;;;;;;14.00;5.43;;;8.70;99.30;;;;;;5026096;28;20674;-60
2021/10/12 03:10:07;;;;;;;10.40;6.20;;;8.70;99.10;;;;;;5026398;28;20452;-60
2021/10/12 03:12:34;;;;;;;13.02;7.18;;;8.70;99.40;;;;;;5025687;28;20132;-60
2021/10/12 03:15:01;;;;;;;13.75;6.30;;;8.70;99.30;;;;;;5025700;28;20119;-60
2021/10/12 03:17:27;;;;;;;19.15;7.28;;;8.70;99.00;;;;;;5025146;28;20136;-60
2021/10/12 03:19:54;;;;;;;14.88;6.38;;;8.70;99.40;;;;;;5026211;28;20639;-60
2021/10/12 03:22:21;;;;;;;13.50;5.82;;;8.70;99.50;;;;;;5025881;28;20092;-60
2021/10/12 03:24:48;;;;;;;16.42;7.53;;;8.70;99.60;;;;;;5026236;28;20045;-60
2021/10/12 03:27:15;;;;;;;13.68;5.90;;;8.70;99.70;;;;;;5025565;28;20132;-60
2021/10/12 03:29:42;;;;;;;19.25;6.68;;;8.70;99.80;;;;;;5025665;28;20124;-60
2021/10/12 03:32:09;;;;;;;25.90;8.70;;;8.70;99.60;;;;;;5024329;28;20085;-60
2021/10/12 03:34:36;;;;;;;25.50;7.07;;;8.70;99.60;;;;;;5025613;28;20050;-60
2021/10/12 03:37:03;;;;;;;17.77;6.90;;;8.70;99.50;;;;;;5026128;28;20129;-60
2021/10/12 03:39:30;;;;;;;21.27;6.68;;;8.70;99.60;;;;;;5026052;28;20567;-60
2021/10/12 03:41:57;;;;;;;10.98;5.78;;;8.70;99.40;;;;;;5025264;28;20544;-60
2021/10/12 03:44:28;;;;;;;19.77;7.22;;;8.70;99.30;;;;;;5025105;28;20042;-60
2021/10/12 03:46:55;;;;;;;14.20;6.45;;;8.70;99.50;;;;;;5025060;28;20085;-60
2021/10/12 03:49:22;;;;;;;12.63;5.70;;;8.60;99.20;;;;;;5025257;28;20124;-60
2021/10/12 03:51:49;;;;;;;12.13;6.18;;;8.60;99.10;;;;;;5028755;28;20548;-60
2021/10/12 03:54:16;;;;;;;16.95;7.15;;;8.60;99.20;;;;;;5029118;28;20068;-60
2021/10/12 03:56:43;;;;;;;15.23;5.47;;;8.60;99.30;;;;;;5029011;28;20136;-60
2021/10/12 03:59:09;;;;;;;11.90;5.57;;;8.60;99.30;;;;;;5028770;28;20073;-60
2021/10/12 04:01:36;;;;;;;10.38;5.88;;;8.50;99.20;;;;;;5028451;28;20080;-60
2021/10/12 04:04:03;;;;;;;16.02;5.90;;;8.50;99.20;;;;;;5029886;28;20049;-60
2021/10/12 04:06:30;;;;;;;14.15;6.63;;;8.60;99.30;;;;;;5029385;28;20042;-60
2021/10/12 04:08:57;;;;;;;10.07;6.00;;;8.50;99.10;;;;;;5029206;28;20165;-60
2021/10/12 04:11:24;;;;;;;16.65;7.90;;;8.50;99.10;;;;;;5029195;28;20089;-60
2021/10/12 04:13:50;;;;;;;13.68;6.32;;;8.40;99.00;;;;;;5028302;28;20045;-60
2021/10/12 04:16:17;;;;;;;18.27;6.95;;;8.40;99.20;;;;;;5028229;28;20050;-60
2021/10/12 04:18:44;;;;;;;17.35;7.63;;;8.40;99.20;;;;;;5026998;28;20199;-61
2021/10/12 04:21:11;;;;;;;14.45;6.03;;;8.40;99.30;;;;;;5028863;28;20108;-60
2021/10/12 04:23:38;;;;;;;12.85;6.63;;;8.40;99.10;;;;;;5028469;28;20081;-60
2021/10/12 04:26:09;;;;;;;17.85;6.38;;;8.40;98.80;;;;;;5028614;28;20095;-61
2021/10/12 04:28:38;;;;;;;;;;;8.40;99.40;;;;;;5028231;28;20052;-61
2021/10/12 04:31:05;;;;;;;9.05;5.35;;;8.40;99.80;;;;;;5027392;28;20004;-60
2021/10/12 04:33:34;;;;;;;10.82;5.50;;;8.40;99.00;;;;;;5027734;28;20056;-60
2021/10/12 04:36:01;;;;;;;10.23;5.30;;;8.30;98.90;;;;;;5028783;28;20129;-61
2021/10/12 04:38:28;;;;;;;9.20;5.70;;;8.30;99.00;;;;;;5028158;28;20092;-60
2021/10/12 04:40:55;;;;;;;11.80;5.57;;;8.30;99.10;;;;;;5027568;28;20269;-61
2021/10/12 04:43:22;;;;;;;13.82;6.50;;;8.30;99.50;;;;;;5042696;28;20077;-61
2021/10/12 04:45:49;;;;;;;12.93;6.10;;;8.30;99.10;;;;;;5028363;28;20132;-61
2021/10/12 04:48:16;;;;;;;12.52;5.47;;;8.20;99.30;;;;;;5024958;28;20045;-60
2021/10/12 04:50:42;;;;;;;17.77;6.32;;;8.20;99.40;;;;;;5026638;28;20093;-60
2021/10/12 04:53:11;;;;;;;13.20;5.78;;;8.20;99.70;;;;;;5024271;28;20128;-60
2021/10/12 04:55:41;;;;;;;13.77;6.43;;;8.10;99.40;;;;;;5026136;28;20053;-60
2021/10/12 04:58:08;;;;;;;13.32;5.80;;;8.20;99.80;;;;;;5024808;28;20124;-60
2021/10/12 05:00:36;;;;;;;15.13;6.85;;;8.10;99.60;;;;;;5025570;28;20116;-60
2021/10/12 05:03:02;;;;;;;14.57;6.40;;;8.10;99.70;;;;;;5021470;28;20042;-60
2021/10/12 05:05:30;;;;;;;13.23;5.20;;;8.20;99.60;;;;;;5023818;28;20144;-61
2021/10/12 05:07:56;;;;;;;13.00;6.43;;;8.20;99.60;;;;;;5024116;28;20133;-60
2021/10/12 05:10:24;;;;;;;15.00;6.68;;;8.20;99.70;;;;;;5022260;28;20088;-61
2021/10/12 05:12:51;;;;;;;14.68;6.93;;;8.20;99.60;;;;;;5020857;28;20524;-60
2021/10/12 05:15:23;;;;;;;11.43;6.00;;;8.20;99.70;;;;;;5022822;28;20219;-60
2021/10/12 05:17:50;;;;;;;18.60;6.90;;;8.20;99.30;;;;;;5021768;28;21049;-60
2021/10/12 05:20:17;;;;;;;14.32;7.18;;;8.20;99.50;;;;;;5025882;28;20369;-61
2021/10/12 05:22:44;;;;;;;14.98;9.55;;;8.20;99.40;;;;;;5029712;28;20095;-60
2021/10/12 05:25:11;;;;;;;15.65;8.35;;;8.20;99.60;;;;;;5029771;28;20335;-59
2021/10/12 05:27:38;;;;;;;15.10;6.07;;;8.10;99.30;;;;;;5027136;28;20215;-59
2021/10/12 05:30:06;;;;;;;9.63;5.75;;;8.20;99.40;;;;;;5029408;28;20582;-60
2021/10/12 05:32:35;;;;;;;13.50;5.75;;;8.10;99.50;;;;;;5027225;28;20128;-59
2021/10/12 05:35:03;;;;;;;11.98;5.40;;;8.20;99.50;;;;;;5028555;28;20124;-59
2021/10/12 05:37:29;;;;;;;12.48;5.65;;;8.10;99.40;;;;;;5024572;28;20495;-60
2021/10/12 05:39:56;;;;;;;15.45;6.78;;;8.10;99.20;;;;;;5020049;28;20107;-59
2021/10/12 05:42:23;;;;;;;16.10;6.18;;;8.10;99.50;;;;;;5018953;28;20913;-60
2021/10/12 05:44:50;;;;;;;9.98;5.18;;;8.20;99.50;;;;;;5025268;28;20121;-60
2021/10/12 05:47:17;;;;;;;18.25;8.13;;;8.20;99.40;;;;;;5023831;28;20128;-60
2021/10/12 05:49:44;;;;;;;13.25;6.53;;;8.20;99.40;;;;;;5025786;28;20124;-60
2021/10/12 05:52:14;;;;;;;11.75;5.57;;;8.20;99.10;;;;;;5022341;28;20148;-59
2021/10/12 05:54:48;;;;;;;12.38;5.97;;;8.20;99.20;;;;;;5019089;28;20612;-60
2021/10/12 05:57:20;;;;;;;19.38;7.40;;;8.20;99.40;;;;;;5018348;28;20152;-60
2021/10/12 05:59:46;;;;;;;10.93;5.65;;;8.20;99.50;;;;;;5017611;28;20502;-59
2021/10/12 06:02:13;;;;;;;17.10;8.20;;;8.20;99.30;;;;;;5017957;28;20083;-59
2021/10/12 06:04:40;;;;;;;16.85;7.80;;;8.10;99.00;;;;;;5018010;28;20083;-58
2021/10/12 06:07:07;;;;;;;15.70;6.53;;;8.20;99.20;;;;;;5017934;28;20117;-58
2021/10/12 06:09:34;;;;;;;20.02;8.35;;;8.10;99.00;;;;;;5019209;28;20103;-59
2021/10/12 06:12:01;;;;;;;17.30;6.80;;;8.10;99.70;;;;;;5018551;28;20057;-58
2021/10/12 06:14:27;;;;;;;19.73;8.85;;;8.10;99.80;;;;;;5018315;28;20523;-59
2021/10/12 06:16:54;;;;;;;18.80;9.77;;;8.10;99.90;;;;;;5018273;28;20080;-59
2021/10/12 06:19:21;;;;;;;13.55;5.93;;;8.20;99.90;;;;;;5019246;28;20046;-59
2021/10/12 06:21:49;;;;;;;18.13;6.85;;;8.20;99.60;;;;;;5015805;28;20494;-59
2021/10/12 06:24:16;;;;;;;16.15;6.25;;;8.30;99.70;;;;;;5018759;28;20132;-59
2021/10/12 06:26:42;;;;;;;12.23;5.43;;;8.20;99.60;;;;;;5019305;28;20132;-58
2021/10/12 06:29:10;;;;;;;14.27;7.05;;;8.30;99.70;;;;;;5017928;28;20142;-58
2021/10/12 06:31:36;;;;;;;20.10;7.35;;;8.30;99.70;;;;;;5017812;28;20511;-58
2021/10/12 06:34:03;;;;;;;13.57;6.88;;;8.30;99.90;;;;;;5018653;28;20181;-59
2021/10/12 06:36:31;;;;;;;16.25;6.63;;;8.40;99.90;;;;;;5018802;28;20096;-58
2021/10/12 06:38:58;;;;;;;17.63;7.50;;;8.50;99.90;;;;;;5019460;28;20084;-58
2021/10/12 06:41:26;;;;;;;15.52;6.65;;;8.50;99.90;;;;;;5019454;28;20073;-58
2021/10/12 06:44:11;;;;;;;18.35;8.05;;;8.60;99.80;;;;;;5018147;28;20407;-58
2021/10/12 06:46:38;;;;;;;18.67;7.00;;;8.70;99.90;;;;;;5018150;28;20446;-59
2021/10/12 06:49:05;;;;;;;27.83;7.68;;;8.70;99.90;;;;;;5018649;28;20055;-59
2021/10/12 06:51:32;;;;;;;16.52;6.88;;;8.80;99.90;;;;;;5018532;28;20132;-59
2021/10/12 06:54:12;;;;;;;17.15;7.15;;;8.90;99.90;;;;;;5018839;28;20060;-59
2021/10/12 06:56:39;;;;;;;14.48;6.55;;;9.00;99.80;;;;;;5017849;28;20080;-60
2021/10/12 06:59:06;;;;;;;21.05;7.38;;;9.10;99.80;;;;;;5018218;28;20135;-59
2021/10/12 07:01:32;;;;;;;17.10;8.25;;;9.10;99.80;;;;;;5018172;28;20148;-59
2021/10/12 07:03:59;;;;;;;17.33;7.55;;;9.20;99.80;;;;;;5018124;28;20049;-59
2021/10/12 07:06:26;;;;;;;16.02;6.97;;;9.20;99.90;;;;;;5018563;28;20136;-59
2021/10/12 07:08:53;;;;;;;20.08;7.45;;;9.20;99.90;;;;;;5018315;28;20128;-59
2021/10/12 07:11:20;;;;;;;17.42;7.28;;;9.30;99.80;;;;;;5018072;28;20053;-59
2021/10/12 07:13:47;;;;;;;18.48;8.18;;;9.40;99.80;;;;;;5017381;28;20141;-59
2021/10/12 07:16:15;;;;;;;15.10;7.80;;;9.40;99.70;;;;;;5017405;28;20049;-59
2021/10/12 07:18:42;;;;;;;18.80;7.88;;;9.50;99.70;;;;;;5007447;28;20045;-59
2021/10/12 07:21:09;;;;;;;14.52;6.85;;;9.50;99.60;;;;;;5016542;28;20132;-59
2021/10/12 07:23:36;;;;;;;15.55;6.80;;;9.60;99.50;;;;;;5015908;28;20071;-59
2021/10/12 07:26:03;;;;;;;21.00;8.30;;;9.60;99.40;;;;;;5018478;28;20141;-59
2021/10/12 07:28:30;;;;;;;18.77;6.82;;;9.60;99.40;;;;;;5017657;28;20556;-59
2021/10/12 07:30:58;;;;;;;16.58;6.88;;;9.70;99.30;;;;;;5019310;28;20428;-59
2021/10/12 07:33:25;;;;;;;14.18;7.15;;;9.70;99.30;;;;;;5019051;28;20051;-58
2021/10/12 07:35:55;;;;;;;17.67;8.30;;;9.80;99.30;;;;;;5019294;28;20180;-59
2021/10/12 07:38:23;;;;;;;14.25;6.75;;;9.80;99.20;;;;;;5019941;28;20050;-59
2021/10/12 07:40:50;;;;;;;17.45;7.43;;;9.90;99.20;;;;;;5021905;28;20041;-58
2021/10/12 07:43:17;;;;;;;21.08;6.93;;;9.90;99.10;;;;;;5018722;28;20338;-59
2021/10/12 07:45:45;;;;;;;15.07;6.97;;;10.00;99.20;;;;;;5019629;28;20114;-58
2021/10/12 07:48:12;;;;;;;16.10;7.93;;;10.00;99.00;;;;;;5034419;28;20099;-59
2021/10/12 07:50:39;;;;;;;18.90;7.43;;;10.00;98.80;;;;;;5018406;28;20084;-59
2021/10/12 07:53:06;;;;;;;15.55;7.95;;;10.00;98.90;;;;;;5019270;28;20084;-58
2021/10/12 07:58:06;;;;;;;17.27;7.45;;;10.10;98.90;;;;;;5019893;28;20470;-58
2021/10/12 08:00:33;;;;;;;19.92;6.57;;;10.20;98.50;;;;;;5020329;28;21581;-59
2021/10/12 08:03:01;;;;;;;20.95;6.78;;;10.30;98.30;;;;;;5019602;28;20050;-59
2021/10/12 08:05:29;;;;;;;17.77;8.18;;;10.30;98.20;;;;;;5020704;28;20042;-58
2021/10/12 08:07:56;;;;;;;16.58;5.88;;;10.30;98.20;;;;;;5019507;28;20045;-59
2021/10/12 08:10:38;;;;;;;14.75;7.43;;;10.30;98.00;;;;;;5020341;28;20065;-59
2021/10/12 08:13:10;;;;;;;16.90;7.28;;;10.40;97.90;;;;;;5018063;28;20152;-58
2021/10/12 08:15:40;;;;;;;17.77;6.97;;;10.40;97.90;;;;;;5020321;28;20092;-59
2021/10/12 08:18:06;;;;;;;14.48;6.55;;;10.40;97.90;;;;;;5018734;28;20080;-59
2021/10/12 08:20:34;;;;;;;14.00;6.47;;;10.40;97.80;;;;;;5019798;28;20512;-58
2021/10/12 08:23:00;;;;;;;11.50;5.75;;;10.40;98.10;;;;;;5019963;28;20504;-59
2021/10/12 08:25:27;;;;;;;13.65;6.57;;;10.40;97.80;;;;;;5019816;28;20050;-59
2021/10/12 08:27:54;;;;;;;19.02;7.63;;;10.40;97.70;;;;;;5018512;28;20136;-59
2021/10/12 08:30:21;;;;;;;13.45;6.45;;;10.40;97.80;;;;;;5018546;28;20146;-59
2021/10/12 08:32:47;;;;;;;16.27;7.00;;;10.40;97.70;;;;;;5016290;28;20141;-59
2021/10/12 08:35:15;;;;;;;15.70;7.22;;;10.40;97.60;;;;;;5018794;28;20264;-59
2021/10/12 08:37:42;;;;;;;17.85;6.80;;;10.50;97.50;;;;;;5018865;28;20050;-59
2021/10/12 08:40:13;;;;;;;16.08;7.40;;;10.50;97.70;;;;;;5019499;28;20047;-59
2021/10/12 08:42:50;;;;;;;25.02;8.70;;;10.50;97.40;;;;;;5018525;28;20511;-59
2021/10/12 08:45:18;;;;;;;19.17;7.32;;;10.60;97.50;;;;;;5017930;28;20069;-59
2021/10/12 08:47:44;;;;;;;21.27;7.50;;;10.60;97.50;;;;;;5018953;28;20049;-59
2021/10/12 08:50:15;;;;;;;15.00;6.90;;;10.60;97.50;;;;;;5018954;28;21030;-59
2021/10/12 08:52:44;;;;;;;14.68;6.47;;;10.70;97.40;;;;;;5025486;28;20053;-59
2021/10/12 08:55:13;;;;;;;23.73;7.22;;;10.70;97.30;;;;;;5019071;28;20522;-59
2021/10/12 08:57:42;;;;;;;20.33;7.70;;;10.70;97.10;;;;;;5018567;28;20140;-59
2021/10/12 09:00:16;;;;;;;12.10;6.75;;;10.70;97.20;;;;;;5017572;28;20096;-59
2021/10/12 09:03:16;;;;;;;18.67;6.90;;;10.80;97.10;;;;;;5017127;28;20476;-59
2021/10/12 09:06:04;;;;;;;13.68;6.75;;;10.80;97.00;;;;;;5018682;28;20556;-59
2021/10/12 09:08:40;;;;;;;16.75;7.35;;;10.90;97.10;;;;;;5016194;28;20061;-59
2021/10/12 09:11:20;;;;;;;14.68;6.80;;;10.90;96.80;;;;;;5016907;28;20203;-59
2021/10/12 09:13:48;;;;;;;16.63;7.28;;;11.00;96.80;;;;;;5016434;28;20575;-59
2021/10/12 09:16:16;;;;;;;20.25;7.75;;;11.00;96.60;;;;;;5018889;28;20057;-59
2021/10/12 09:18:49;;;;;;;16.60;7.03;;;11.00;96.70;;;;;;5017714;28;20073;-59
2021/10/12 09:21:17;;;;;;;;;;;11.10;96.70;;;;;;5020451;28;20134;-59
2021/10/12 09:23:44;;;;;;;11.80;6.78;;;11.10;96.60;;;;;;5017229;28;20029;-59
2021/10/12 09:26:18;;;;;;;11.57;6.57;;;11.20;96.70;;;;;;5019336;28;20665;-59
2021/10/12 09:28:45;;;;;;;17.02;7.35;;;11.30;96.30;;;;;;5018631;28;20069;-59
2021/10/12 09:31:12;;;;;;;13.98;7.50;;;11.40;96.30;;;;;;5018811;28;20107;-59
2021/10/12 09:33:48;;;;;;;12.48;7.25;;;11.50;96.00;;;;;;5015795;28;20065;-59
2021/10/12 09:36:32;;;;;;;19.48;7.93;;;11.60;95.70;;;;;;5016392;28;20080;-59
2021/10/12 09:38:59;;;;;;;13.95;8.05;;;11.70;95.30;;;;;;5018242;28;20088;-59
2021/10/12 09:41:28;;;;;;;14.45;6.88;;;11.70;95.70;;;;;;5016699;28;20041;-59
2021/10/12 09:44:12;;;;;;;13.85;7.40;;;11.70;95.80;;;;;;5016644;28;20132;-59
2021/10/12 09:46:46;;;;;;;14.75;6.75;;;11.80;95.40;;;;;;5018020;28;20110;-59
2021/10/12 09:49:23;;;;;;;12.75;6.07;;;11.80;95.60;;;;;;5016105;28;20082;-59
2021/10/12 09:52:16;;;;;;;14.93;7.80;;;11.80;95.60;;;;;;5015261;28;20547;-59
2021/10/12 09:54:52;;;;;;;14.75;6.90;;;11.80;95.60;;;;;;5018285;28;20119;-59
2021/10/12 09:57:21;;;;;;;19.15;8.00;;;11.80;95.70;;;;;;5016445;28;20354;-59
2021/10/12 09:59:48;;;;;;;11.63;6.68;;;11.90;95.50;;;;;;5015397;28;20096;-59
2021/10/12 10:02:21;;;;;;;13.27;7.53;;;11.90;95.40;;;;;;5018263;28;20465;-59
2021/10/12 10:04:49;;;;;;;13.38;6.43;;;11.90;95.30;;;;;;5017674;28;20124;-59
2021/10/12 10:07:27;;;;;;;12.93;7.20;;;12.00;95.00;;;;;;5019103;28;20104;-59
2021/10/12 10:09:55;;;;;;;16.42;8.60;;;12.00;95.20;;;;;;5000499;28;20475;-59
2021/10/12 10:12:22;;;;;;;12.35;6.60;;;12.10;95.60;;;;;;5017153;28;20143;-59
2021/10/12 10:14:49;;;;;;;11.55;6.93;;;12.20;95.20;;;;;;5018158;28;20049;-59
2021/10/12 10:17:16;;;;;;;15.20;6.70;;;12.20;95.00;;;;;;5018977;28;20130;-60
2021/10/12 10:19:44;;;;;;;16.02;6.53;;;12.30;95.00;;;;;;5006436;28;20543;-59
2021/10/12 10:23:07;;;;;;;14.18;6.22;;;12.40;95.00;;;;;;5001585;28;20487;-60
2021/10/12 10:25:34;;;;;;;9.75;5.43;;;12.50;94.70;;;;;;4997737;28;20060;-59
2021/10/12 10:28:21;;;;;;;17.75;7.75;;;12.60;94.70;;;;;;5007222;28;20053;-59
2021/10/12 10:30:59;;;;;;;13.55;6.47;;;12.80;94.60;;;;;;5020174;28;20072;-59
2021/10/12 10:33:35;;;;;;;20.15;6.47;;;12.90;94.40;;;;;;5018234;28;20136;-59
2021/10/12 10:36:04;;;;;;;12.10;5.45;;;13.00;94.20;;;;;;5016749;28;20084;-59
2021/10/12 10:38:46;;;;;;;10.35;5.43;;;13.10;93.80;;;;;;5015882;28;20377;-59
2021/10/12 10:41:15;;;;;;;7.53;4.65;;;13.30;93.60;;;;;;5018447;28;20046;-59
2021/10/12 10:43:48;;;;;;;10.05;4.88;;;13.40;94.20;;;;;;5020426;28;20481;-59
2021/10/12 10:46:34;;;;;;;15.68;5.18;;;13.50;93.60;;;;;;5015566;28;20137;-59
2021/10/12 10:49:15;;;;;;;10.85;5.32;;;13.60;92.40;;;;;;5020758;28;20417;-59
2021/10/12 10:51:49;;;;;;;16.75;5.53;;;13.70;92.00;;;;;;5019768;28;20103;-59
2021/10/12 10:54:43;;;;;;;11.13;5.00;;;13.80;92.20;;;;;;5019710;28;20515;-59
2021/10/12 10:57:19;;;;;;;;;;;14.00;92.10;;;;;;5021037;28;20390;-59
2021/10/12 10:59:46;;;;;;;11.63;5.03;;;14.20;91.50;;;;;;5021245;28;19975;-59
2021/10/12 11:02:28;;;;;;;8.68;4.25;;;14.60;91.80;;;;;;5023639;28;20572;-59
2021/10/12 11:04:56;;;;;;;13.02;4.63;;;14.80;89.90;;;;;;5022864;28;20760;-59
2021/10/12 11:07:24;;;;;;;8.75;3.55;;;14.90;89.60;;;;;;5023969;28;20069;-59
2021/10/12 11:09:51;;;;;;;13.63;4.82;;;15.30;90.20;;;;;;5022750;28;20054;-59
2021/10/12 11:12:22;;;;;;;15.43;4.60;;;15.60;89.30;;;;;;5023094;28;20073;-59
2021/10/12 11:14:49;;;;;;;13.15;4.30;;;15.60;88.60;;;;;;5022705;28;20081;-59
2021/10/12 11:17:16;;;;;;;8.32;4.20;;;15.50;88.00;;;;;;5023639;28;20140;-59
2021/10/12 11:19:56;;;;;;;12.35;4.05;;;15.30;89.20;;;;;;5023534;28;20053;-59
2021/10/12 11:22:24;;;;;;;10.85;4.60;;;15.10;88.10;;;;;;5023139;28;20073;-59
2021/10/12 11:24:51;;;;;;;13.43;3.38;;;15.20;89.50;;;;;;5024321;28;20049;-59
2021/10/12 11:27:47;;;;;;;10.40;3.67;;;15.40;88.80;;;;;;5023926;28;20046;-59
2021/10/12 11:30:15;;;;;;;12.23;4.03;;;15.60;87.10;;;;;;5019397;28;20132;-59
2021/10/12 11:32:42;;;;;;;12.68;4.10;;;15.90;89.00;;;;;;5021781;28;20046;-59
2021/10/12 11:35:10;;;;;;;7.32;2.65;;;15.90;86.80;;;;;;5023430;28;20061;-59
2021/10/12 11:37:54;;;;;;;9.13;2.90;;;16.10;86.60;;;;;;5023950;28;20428;-59
2021/10/12 11:40:25;;;;;;;8.25;2.80;;;16.10;84.70;;;;;;5024070;28;20111;-59
2021/10/12 11:42:53;;;;;;;13.18;2.65;;;16.10;83.70;;;;;;5022900;28;20049;-60
2021/10/12 11:45:20;;;;;;;9.27;2.67;;;16.10;82.60;;;;;;5021362;28;20562;-59
2021/10/12 11:47:46;;;;;;;7.28;2.15;;;16.20;82.90;;;;;;5020377;28;20400;-59
2021/10/12 11:50:15;;;;;;;8.60;2.25;;;16.20;83.40;;;;;;5023446;28;20176;-60
2021/10/12 11:52:46;;;;;;;7.07;2.92;;;16.60;84.50;;;;;;5022929;28;20177;-60
2021/10/12 11:55:14;;;;;;;8.88;2.95;;;16.60;80.60;;;;;;5022982;28;20493;-59
2021/10/12 11:57:43;;;;;;;3.92;1.80;;;16.60;82.60;;;;;;5021004;28;20124;-59
2021/10/12 12:00:11;;;;;;;5.10;2.30;;;16.70;81.40;;;;;;5023680;28;20210;-60
2021/10/12 12:02:38;;;;;;;11.23;2.08;;;16.70;80.10;;;;;;5022059;28;20077;-59
2021/10/12 12:05:05;;;;;;;5.97;2.30;;;16.70;80.90;;;;;;5022021;28;20543;-59
2021/10/12 12:07:34;;;;;;;9.88;2.72;;;16.50;81.00;;;;;;5023054;28;20053;-59
2021/10/12 12:10:01;;;;;;;5.90;2.25;;;16.60;82.20;;;;;;5022490;28;20045;-59
2021/10/12 12:12:27;;;;;;;7.10;2.72;;;16.60;83.20;;;;;;5020252;28;20041;-59
2021/10/12 12:14:54;;;;;;;6.45;2.25;;;16.60;82.40;;;;;;5029538;28;20072;-59
2021/10/12 12:17:22;;;;;;;5.28;2.15;;;16.60;82.40;;;;;;5042438;28;20091;-59
2021/10/12 12:19:53;;;;;;;8.88;2.67;;;16.50;83.00;;;;;;5029394;28;20137;-59
2021/10/12 12:22:22;;;;;;;6.22;2.40;;;16.50;83.80;;;;;;5022701;28;20049;-59
2021/10/12 12:25:06;;;;;;;7.95;2.40;;;16.40;83.30;;;;;;5023351;28;20461;-59
2021/10/12 12:27:53;;;;;;;5.03;2.50;;;16.30;82.90;;;;;;5023329;28;20073;-60
2021/10/12 12:30:30;;;;;;;4.43;1.70;;;17.10;81.70;;;;;;5021723;28;20584;-59
2021/10/12 12:33:02;;;;;;;7.05;2.13;;;17.20;79.30;;;;;;5020152;28;20492;-59
2021/10/12 12:35:40;;;;;;;6.68;1.88;;;17.20;81.60;;;;;;5022948;28;20141;-60
2021/10/12 12:38:08;;;;;;;7.97;2.33;;;17.20;80.50;;;;;;5022672;28;20115;-59
2021/10/12 12:40:44;;;;;;;8.50;3.22;;;17.10;80.70;;;;;;5021558;28;20103;-60
2021/10/12 12:43:22;;;;;;;7.43;2.55;;;17.10;81.10;;;;;;5018684;28;20053;-59
2021/10/12 12:46:07;;;;;;;3.53;1.75;;;17.00;80.20;;;;;;5023218;28;20663;-60
2021/10/12 12:48:34;;;;;;;5.30;2.20;;;16.80;80.60;;;;;;5022226;28;20049;-60
2021/10/12 12:51:02;;;;;;;7.75;2.28;;;16.80;81.30;;;;;;5021890;28;20636;-59
2021/10/12 12:53:43;;;;;;;9.48;2.33;;;16.80;81.30;;;;;;5033608;28;20076;-59
2021/10/12 12:56:18;;;;;;;9.85;2.22;;;16.90;81.60;;;;;;5020540;28;20060;-59
2021/10/12 12:58:46;;;;;;;6.95;2.20;;;17.00;82.80;;;;;;5017513;28;20647;-59